Terminal Aerodrome Forecast
Issued by NWS

Home | Current Version | Previous Version | Text Only | Print | Product List | Glossary On
Versions: 1 2 3 4 5 6 7 8 9 10 11 12 13 14 15 16
478
FTUS43 KPAH 232338
TAFCGI
TAF
KCGI 232338Z 2400/2424 15007KT P6SM FEW250
     FM240400 16010KT P6SM FEW250 WS020/18040KT
     FM241100 18014G22KT P6SM FEW020 SCT250
     FM241300 18014G23KT P6SM BKN020
     FM241500 18015G24KT P6SM OVC040=

USA.gov is the U.S. government's official web portal to all federal, state and local government web resources and services.